sensor_id;sensor_type;location;lat;lon;timestamp;pressure;altitude;pressure_sealevel;temperature;humidity
8253;BME280;61313;48.396;10.008;2023-02-22T00:00:18;96109.75;;;9.33;51.39
8253;BME280;61313;48.396;10.008;2023-02-22T00:02:51;96110.16;;;9.04;52.21
8253;BME280;61313;48.396;10.008;2023-02-22T00:05:18;96104.56;;;9.11;52.33
8253;BME280;61313;48.396;10.008;2023-02-22T00:07:47;96109.81;;;9.11;52.30
8253;BME280;61313;48.396;10.008;2023-02-22T00:10:15;96106.69;;;9.03;53.04
8253;BME280;61313;48.396;10.008;2023-02-22T00:12:45;96108.66;;;8.98;53.29
8253;BME280;61313;48.396;10.008;2023-02-22T00:15:11;96108.09;;;8.90;53.67
8253;BME280;61313;48.396;10.008;2023-02-22T00:17:38;96112.34;;;8.93;53.41
8253;BME280;61313;48.396;10.008;2023-02-22T00:20:04;96101.50;;;8.81;53.49
8253;BME280;61313;48.396;10.008;2023-02-22T00:22:33;96105.34;;;8.73;54.28
8253;BME280;61313;48.396;10.008;2023-02-22T00:24:58;96099.47;;;8.67;54.22
8253;BME280;61313;48.396;10.008;2023-02-22T00:27:24;96102.88;;;8.69;53.44
8253;BME280;61313;48.396;10.008;2023-02-22T00:29:49;96108.03;;;8.71;54.39
8253;BME280;61313;48.396;10.008;2023-02-22T00:32:15;96101.59;;;8.58;54.51
8253;BME280;61313;48.396;10.008;2023-02-22T00:34:41;96096.44;;;8.56;54.40
8253;BME280;61313;48.396;10.008;2023-02-22T00:37:09;96105.09;;;8.35;54.31
8253;BME280;61313;48.396;10.008;2023-02-22T00:39:34;96099.59;;;8.42;53.95
8253;BME280;61313;48.396;10.008;2023-02-22T00:42:00;96102.78;;;8.51;55.01
8253;BME280;61313;48.396;10.008;2023-02-22T00:44:25;96102.81;;;8.49;54.30
8253;BME280;61313;48.396;10.008;2023-02-22T00:46:51;96102.81;;;8.27;54.84
8253;BME280;61313;48.396;10.008;2023-02-22T00:49:17;96113.59;;;7.72;56.67
8253;BME280;61313;48.396;10.008;2023-02-22T00:51:42;96111.34;;;7.87;56.00
8253;BME280;61313;48.396;10.008;2023-02-22T00:54:08;96105.06;;;7.91;56.58
8253;BME280;61313;48.396;10.008;2023-02-22T00:56:35;96102.38;;;8.16;55.08
8253;BME280;61313;48.396;10.008;2023-02-22T00:59:02;96100.34;;;8.00;56.01
8253;BME280;61313;48.396;10.008;2023-02-22T01:01:28;96105.47;;;8.03;55.42
8253;BME280;61313;48.396;10.008;2023-02-22T01:03:54;96105.78;;;8.18;55.35
8253;BME280;61313;48.396;10.008;2023-02-22T01:06:19;96104.03;;;7.95;55.83
8253;BME280;61313;48.396;10.008;2023-02-22T01:08:47;96095.84;;;8.04;55.56
8253;BME280;61313;48.396;10.008;2023-02-22T01:11:14;96101.75;;;8.09;55.35
8253;BME280;61313;48.396;10.008;2023-02-22T01:13:40;96104.31;;;8.11;55.35
8253;BME280;61313;48.396;10.008;2023-02-22T01:16:05;96094.97;;;8.27;55.16
8253;BME280;61313;48.396;10.008;2023-02-22T01:18:34;96098.66;;;8.21;55.05
8253;BME280;61313;48.396;10.008;2023-02-22T01:21:01;96095.69;;;8.31;54.64
8253;BME280;61313;48.396;10.008;2023-02-22T01:23:26;96094.59;;;8.36;54.46
8253;BME280;61313;48.396;10.008;2023-02-22T01:25:52;96086.16;;;8.30;54.70
8253;BME280;61313;48.396;10.008;2023-02-22T01:28:17;96085.47;;;8.24;55.12
8253;BME280;61313;48.396;10.008;2023-02-22T01:30:43;96084.13;;;8.14;55.23
8253;BME280;61313;48.396;10.008;2023-02-22T01:33:08;96080.63;;;8.15;55.20
8253;BME280;61313;48.396;10.008;2023-02-22T01:35:37;96085.59;;;8.21;54.62
8253;BME280;61313;48.396;10.008;2023-02-22T01:38:05;96088.28;;;8.20;55.15
8253;BME280;61313;48.396;10.008;2023-02-22T01:40:34;96092.09;;;8.11;54.50
8253;BME280;61313;48.396;10.008;2023-02-22T01:43:03;96084.38;;;8.08;54.66
8253;BME280;61313;48.396;10.008;2023-02-22T01:48:08;96085.41;;;8.04;54.34
8253;BME280;61313;48.396;10.008;2023-02-22T01:50:44;96094.41;;;7.97;55.42
8253;BME280;61313;48.396;10.008;2023-02-22T01:53:15;96085.53;;;8.01;54.62
8253;BME280;61313;48.396;10.008;2023-02-22T01:55:42;96085.94;;;7.90;55.07
8253;BME280;61313;48.396;10.008;2023-02-22T01:58:09;96090.66;;;7.80;55.40
8253;BME280;61313;48.396;10.008;2023-02-22T02:00:35;96092.63;;;7.97;55.46
8253;BME280;61313;48.396;10.008;2023-02-22T02:03:13;96082.66;;;8.07;54.81
8253;BME280;61313;48.396;10.008;2023-02-22T02:05:40;96080.53;;;7.95;55.02
8253;BME280;61313;48.396;10.008;2023-02-22T02:08:26;96074.06;;;7.81;55.55
8253;BME280;61313;48.396;10.008;2023-02-22T02:10:55;96075.16;;;7.76;55.42
8253;BME280;61313;48.396;10.008;2023-02-22T02:13:23;96070.59;;;7.81;55.32
8253;BME280;61313;48.396;10.008;2023-02-22T02:15:53;96071.19;;;7.18;57.22
8253;BME280;61313;48.396;10.008;2023-02-22T02:18:19;96073.56;;;7.25;57.54
8253;BME280;61313;48.396;10.008;2023-02-22T02:32:18;96054.78;;;7.38;57.28
8253;BME280;61313;48.396;10.008;2023-02-22T02:35:42;96054.25;;;7.30;57.41
8253;BME280;61313;48.396;10.008;2023-02-22T02:38:03;96052.63;;;7.26;57.50
8253;BME280;61313;48.396;10.008;2023-02-22T02:40:40;96053.34;;;7.30;57.29
8253;BME280;61313;48.396;10.008;2023-02-22T02:43:28;96043.56;;;7.36;56.90
8253;BME280;61313;48.396;10.008;2023-02-22T02:47:01;96041.28;;;7.27;56.99
8253;BME280;61313;48.396;10.008;2023-02-22T02:49:03;96041.97;;;7.32;56.91
8253;BME280;61313;48.396;10.008;2023-02-22T02:51:34;96037.19;;;7.20;57.42
8253;BME280;61313;48.396;10.008;2023-02-22T02:54:01;96029.34;;;7.20;57.08
8253;BME280;61313;48.396;10.008;2023-02-22T02:56:27;96032.03;;;7.18;57.07
8253;BME280;61313;48.396;10.008;2023-02-22T02:58:53;96027.03;;;7.12;57.24
8253;BME280;61313;48.396;10.008;2023-02-22T03:04:04;96017.03;;;7.00;57.85
8253;BME280;61313;48.396;10.008;2023-02-22T03:06:54;96010.38;;;6.91;58.07
8253;BME280;61313;48.396;10.008;2023-02-22T03:12:18;96019.34;;;6.84;59.15
8253;BME280;61313;48.396;10.008;2023-02-22T03:17:30;96012.78;;;6.97;58.55
8253;BME280;61313;48.396;10.008;2023-02-22T03:20:06;96021.31;;;7.03;58.36
8253;BME280;61313;48.396;10.008;2023-02-22T03:22:43;96018.50;;;6.84;58.72
8253;BME280;61313;48.396;10.008;2023-02-22T03:25:32;96016.84;;;6.81;58.77
8253;BME280;61313;48.396;10.008;2023-02-22T03:28:03;96008.53;;;6.70;59.18
8253;BME280;61313;48.396;10.008;2023-02-22T03:31:12;96011.06;;;6.21;61.02
8253;BME280;61313;48.396;10.008;2023-02-22T03:33:46;96015.94;;;6.05;61.40
8253;BME280;61313;48.396;10.008;2023-02-22T03:36:20;96012.31;;;6.09;61.20
8253;BME280;61313;48.396;10.008;2023-02-22T03:38:47;96008.78;;;6.37;60.00
8253;BME280;61313;48.396;10.008;2023-02-22T03:41:15;96006.91;;;6.67;59.10
8253;BME280;61313;48.396;10.008;2023-02-22T03:43:46;96011.16;;;6.70;58.66
8253;BME280;61313;48.396;10.008;2023-02-22T03:46:13;96009.50;;;6.67;58.69
8253;BME280;61313;48.396;10.008;2023-02-22T03:51:44;96008.09;;;6.32;60.07
8253;BME280;61313;48.396;10.008;2023-02-22T03:54:10;96019.38;;;6.32;60.33
8253;BME280;61313;48.396;10.008;2023-02-22T03:56:52;96011.22;;;6.43;59.56
8253;BME280;61313;48.396;10.008;2023-02-22T03:59:19;96005.53;;;6.57;59.20
8253;BME280;61313;48.396;10.008;2023-02-22T04:01:50;96012.41;;;6.33;60.05
8253;BME280;61313;48.396;10.008;2023-02-22T04:04:15;96010.41;;;6.41;59.63
8253;BME280;61313;48.396;10.008;2023-02-22T04:06:43;96001.47;;;6.48;59.26
8253;BME280;61313;48.396;10.008;2023-02-22T04:09:08;96018.78;;;6.49;59.00
8253;BME280;61313;48.396;10.008;2023-02-22T04:11:34;96010.13;;;6.49;58.80
8253;BME280;61313;48.396;10.008;2023-02-22T04:13:59;96020.28;;;6.31;59.30
8253;BME280;61313;48.396;10.008;2023-02-22T04:16:25;96012.16;;;6.14;59.69
8253;BME280;61313;48.396;10.008;2023-02-22T04:18:50;96009.75;;;5.80;60.73
8253;BME280;61313;48.396;10.008;2023-02-22T04:21:16;95998.03;;;5.94;60.46
8253;BME280;61313;48.396;10.008;2023-02-22T04:23:41;96001.19;;;5.76;60.51
8253;BME280;61313;48.396;10.008;2023-02-22T04:26:07;96004.00;;;5.98;60.10
8253;BME280;61313;48.396;10.008;2023-02-22T04:28:32;96004.31;;;5.87;60.25
8253;BME280;61313;48.396;10.008;2023-02-22T04:30:58;96007.56;;;5.96;60.18
8253;BME280;61313;48.396;10.008;2023-02-22T04:33:23;96006.59;;;5.98;59.80
8253;BME280;61313;48.396;10.008;2023-02-22T04:35:48;96010.00;;;6.27;59.06
8253;BME280;61313;48.396;10.008;2023-02-22T04:38:15;96022.88;;;6.31;58.61
8253;BME280;61313;48.396;10.008;2023-02-22T04:40:41;96015.81;;;6.35;58.85
8253;BME280;61313;48.396;10.008;2023-02-22T04:43:06;96025.28;;;6.38;58.99
8253;BME280;61313;48.396;10.008;2023-02-22T04:45:32;96018.25;;;6.40;58.96
8253;BME280;61313;48.396;10.008;2023-02-22T04:47:57;96006.88;;;6.42;58.96
8253;BME280;61313;48.396;10.008;2023-02-22T04:50:23;96006.31;;;6.34;59.54
8253;BME280;61313;48.396;10.008;2023-02-22T04:52:48;96000.81;;;6.42;59.58
8253;BME280;61313;48.396;10.008;2023-02-22T04:55:14;95998.25;;;6.40;60.18
8253;BME280;61313;48.396;10.008;2023-02-22T04:57:40;95997.41;;;6.40;59.73
8253;BME280;61313;48.396;10.008;2023-02-22T05:00:07;95996.88;;;6.30;59.94
8253;BME280;61313;48.396;10.008;2023-02-22T05:02:36;95994.13;;;6.34;60.63
8253;BME280;61313;48.396;10.008;2023-02-22T05:05:03;95996.28;;;6.22;60.58
8253;BME280;61313;48.396;10.008;2023-02-22T05:07:29;95993.47;;;6.28;60.14
8253;BME280;61313;48.396;10.008;2023-02-22T05:09:54;95991.88;;;6.24;60.64
8253;BME280;61313;48.396;10.008;2023-02-22T05:12:19;95983.91;;;6.28;60.34
8253;BME280;61313;48.396;10.008;2023-02-22T05:14:45;95984.34;;;6.41;59.86
8253;BME280;61313;48.396;10.008;2023-02-22T05:17:11;95986.94;;;6.41;60.25
8253;BME280;61313;48.396;10.008;2023-02-22T05:19:36;95986.75;;;6.47;60.10
8253;BME280;61313;48.396;10.008;2023-02-22T05:22:02;95984.66;;;6.32;59.85
8253;BME280;61313;48.396;10.008;2023-02-22T05:24:30;95993.00;;;6.17;60.49
8253;BME280;61313;48.396;10.008;2023-02-22T05:26:55;95989.97;;;6.29;60.54
8253;BME280;61313;48.396;10.008;2023-02-22T05:29:20;95994.41;;;6.25;59.90
8253;BME280;61313;48.396;10.008;2023-02-22T05:31:46;95985.88;;;6.22;60.49
8253;BME280;61313;48.396;10.008;2023-02-22T05:34:11;95985.06;;;6.20;60.30
8253;BME280;61313;48.396;10.008;2023-02-22T05:36:38;95979.75;;;6.23;59.88
8253;BME280;61313;48.396;10.008;2023-02-22T05:39:04;95985.41;;;6.09;60.08
8253;BME280;61313;48.396;10.008;2023-02-22T05:41:29;95982.72;;;6.12;60.30
8253;BME280;61313;48.396;10.008;2023-02-22T05:43:55;95974.94;;;6.10;60.82
8253;BME280;61313;48.396;10.008;2023-02-22T05:46:20;95977.81;;;6.03;60.48
8253;BME280;61313;48.396;10.008;2023-02-22T05:48:46;95970.47;;;6.14;60.09
8253;BME280;61313;48.396;10.008;2023-02-22T05:51:11;95977.16;;;5.96;60.23
8253;BME280;61313;48.396;10.008;2023-02-22T05:53:37;95975.44;;;5.95;60.40
8253;BME280;61313;48.396;10.008;2023-02-22T05:56:02;95976.94;;;6.02;60.57
8253;BME280;61313;48.396;10.008;2023-02-22T05:58:28;95968.97;;;6.07;59.78
8253;BME280;61313;48.396;10.008;2023-02-22T06:00:53;95970.31;;;6.19;60.17
8253;BME280;61313;48.396;10.008;2023-02-22T06:03:19;95967.66;;;6.20;59.77
8253;BME280;61313;48.396;10.008;2023-02-22T06:05:44;95975.88;;;6.34;59.44
8253;BME280;61313;48.396;10.008;2023-02-22T06:08:10;95971.81;;;6.26;58.99
8253;BME280;61313;48.396;10.008;2023-02-22T06:10:35;95970.31;;;6.19;59.33
8253;BME280;61313;48.396;10.008;2023-02-22T06:13:01;95977.81;;;6.28;59.13
8253;BME280;61313;48.396;10.008;2023-02-22T06:15:27;95976.34;;;6.21;59.53
8253;BME280;61313;48.396;10.008;2023-02-22T06:17:54;95977.41;;;6.15;59.36
8253;BME280;61313;48.396;10.008;2023-02-22T06:20:22;95979.75;;;6.23;59.59
8253;BME280;61313;48.396;10.008;2023-02-22T06:22:49;95979.63;;;6.26;59.53
8253;BME280;61313;48.396;10.008;2023-02-22T06:25:17;95982.34;;;6.23;59.60
8253;BME280;61313;48.396;10.008;2023-02-22T06:27:42;95984.66;;;6.57;58.50
8253;BME280;61313;48.396;10.008;2023-02-22T06:30:10;95982.59;;;6.67;58.16
8253;BME280;61313;48.396;10.008;2023-02-22T06:32:36;95992.78;;;6.73;58.06
8253;BME280;61313;48.396;10.008;2023-02-22T06:35:01;95990.19;;;6.73;57.79
8253;BME280;61313;48.396;10.008;2023-02-22T06:37:27;95984.41;;;6.65;58.27
8253;BME280;61313;48.396;10.008;2023-02-22T06:39:52;95997.47;;;6.88;57.84
8253;BME280;61313;48.396;10.008;2023-02-22T06:42:17;95997.03;;;7.24;56.43
8253;BME280;61313;48.396;10.008;2023-02-22T06:44:43;95988.84;;;7.79;53.97
8253;BME280;61313;48.396;10.008;2023-02-22T06:47:08;95987.41;;;7.94;53.21
8253;BME280;61313;48.396;10.008;2023-02-22T06:49:34;95992.66;;;8.77;50.63
8253;BME280;61313;48.396;10.008;2023-02-22T06:51:59;95987.66;;;9.31;49.23
8253;BME280;61313;48.396;10.008;2023-02-22T06:54:25;95976.47;;;10.21;46.68
8253;BME280;61313;48.396;10.008;2023-02-22T06:56:51;95980.56;;;10.44;45.83
8253;BME280;61313;48.396;10.008;2023-02-22T06:59:16;95987.25;;;10.84;45.08
8253;BME280;61313;48.396;10.008;2023-02-22T07:01:42;95986.06;;;10.56;45.23
8253;BME280;61313;48.396;10.008;2023-02-22T07:04:07;95979.38;;;11.01;44.18
8253;BME280;61313;48.396;10.008;2023-02-22T07:06:33;95983.34;;;11.42;43.21
8253;BME280;61313;48.396;10.008;2023-02-22T07:08:59;95990.84;;;11.65;42.88
8253;BME280;61313;48.396;10.008;2023-02-22T07:11:25;95978.69;;;10.98;44.34
8253;BME280;61313;48.396;10.008;2023-02-22T07:13:51;95982.41;;;11.43;43.87
8253;BME280;61313;48.396;10.008;2023-02-22T07:16:16;95975.84;;;12.15;41.97
8253;BME280;61313;48.396;10.008;2023-02-22T07:18:42;95977.44;;;12.64;40.35
8253;BME280;61313;48.396;10.008;2023-02-22T07:21:07;95971.00;;;13.27;39.28
8253;BME280;61313;48.396;10.008;2023-02-22T07:23:32;95973.91;;;13.65;38.39
8253;BME280;61313;48.396;10.008;2023-02-22T07:25:59;95971.13;;;14.23;36.55
8253;BME280;61313;48.396;10.008;2023-02-22T07:28:24;95966.13;;;14.45;36.22
8253;BME280;61313;48.396;10.008;2023-02-22T07:30:50;95976.41;;;15.02;34.75
8253;BME280;61313;48.396;10.008;2023-02-22T07:33:15;95971.19;;;15.39;34.17
8253;BME280;61313;48.396;10.008;2023-02-22T07:35:46;95974.34;;;14.80;35.15
8253;BME280;61313;48.396;10.008;2023-02-22T07:38:13;95965.19;;;14.46;35.48
8253;BME280;61313;48.396;10.008;2023-02-22T07:40:38;95975.81;;;14.05;36.42
8253;BME280;61313;48.396;10.008;2023-02-22T07:45:40;95970.75;;;13.31;37.82
8253;BME280;61313;48.396;10.008;2023-02-22T07:48:06;95967.75;;;13.79;37.31
8253;BME280;61313;48.396;10.008;2023-02-22T07:50:33;95965.69;;;14.11;36.33
8253;BME280;61313;48.396;10.008;2023-02-22T07:53:00;95962.84;;;14.94;35.40
8253;BME280;61313;48.396;10.008;2023-02-22T07:55:28;95960.13;;;15.09;35.00
8253;BME280;61313;48.396;10.008;2023-02-22T07:57:56;95965.38;;;14.83;35.23
8253;BME280;61313;48.396;10.008;2023-02-22T08:00:30;95963.91;;;13.85;37.72
8253;BME280;61313;48.396;10.008;2023-02-22T08:02:57;95974.31;;;12.57;40.14
8253;BME280;61313;48.396;10.008;2023-02-22T08:05:25;95981.88;;;11.70;42.48
8253;BME280;61313;48.396;10.008;2023-02-22T08:07:51;95976.81;;;11.17;44.14
8253;BME280;61313;48.396;10.008;2023-02-22T08:10:18;95968.00;;;11.50;43.73
8253;BME280;61313;48.396;10.008;2023-02-22T08:12:44;95971.00;;;11.76;43.70
8253;BME280;61313;48.396;10.008;2023-02-22T08:15:16;95972.88;;;11.58;43.58
8253;BME280;61313;48.396;10.008;2023-02-22T08:17:42;95961.31;;;11.76;43.30
8253;BME280;61313;48.396;10.008;2023-02-22T08:20:08;95960.66;;;12.04;42.49
8253;BME280;61313;48.396;10.008;2023-02-22T08:22:34;95962.09;;;12.10;42.93
8253;BME280;61313;48.396;10.008;2023-02-22T08:24:59;95959.78;;;12.20;42.09
8253;BME280;61313;48.396;10.008;2023-02-22T08:27:27;95963.03;;;12.39;42.05
8253;BME280;61313;48.396;10.008;2023-02-22T08:29:53;95970.91;;;12.09;42.90
8253;BME280;61313;48.396;10.008;2023-02-22T08:32:20;95968.81;;;12.00;43.23
8253;BME280;61313;48.396;10.008;2023-02-22T08:34:45;95961.59;;;12.03;42.84
8253;BME280;61313;48.396;10.008;2023-02-22T08:37:12;95969.75;;;11.99;42.72
8253;BME280;61313;48.396;10.008;2023-02-22T08:39:37;95970.53;;;11.36;44.43
8253;BME280;61313;48.396;10.008;2023-02-22T08:42:03;95971.56;;;11.17;45.30
8253;BME280;61313;48.396;10.008;2023-02-22T08:44:28;95971.47;;;11.35;44.86
8253;BME280;61313;48.396;10.008;2023-02-22T08:46:54;95969.97;;;11.47;45.02
8253;BME280;61313;48.396;10.008;2023-02-22T08:49:20;95966.22;;;11.35;45.30
8253;BME280;61313;48.396;10.008;2023-02-22T08:51:45;95963.91;;;11.29;45.51
8253;BME280;61313;48.396;10.008;2023-02-22T08:54:11;95964.44;;;11.35;45.24
8253;BME280;61313;48.396;10.008;2023-02-22T08:56:37;95969.47;;;10.73;46.72
8253;BME280;61313;48.396;10.008;2023-02-22T08:59:02;95972.63;;;10.45;47.98
8253;BME280;61313;48.396;10.008;2023-02-22T09:01:28;95967.63;;;10.41;47.90
8253;BME280;61313;48.396;10.008;2023-02-22T09:03:54;95971.13;;;10.22;48.81
8253;BME280;61313;48.396;10.008;2023-02-22T09:06:23;95970.84;;;10.46;48.18
8253;BME280;61313;48.396;10.008;2023-02-22T09:08:48;95963.69;;;10.49;48.29
8253;BME280;61313;48.396;10.008;2023-02-22T09:11:13;95966.47;;;10.64;47.94
8253;BME280;61313;48.396;10.008;2023-02-22T09:13:39;95956.09;;;11.60;47.63
8253;BME280;61313;48.396;10.008;2023-02-22T09:16:05;95955.03;;;11.15;47.47
8253;BME280;61313;48.396;10.008;2023-02-22T09:18:30;95959.75;;;10.91;47.31
8253;BME280;61313;48.396;10.008;2023-02-22T09:20:57;95963.88;;;10.97;47.56
8253;BME280;61313;48.396;10.008;2023-02-22T09:23:22;95958.88;;;10.75;48.25
8253;BME280;61313;48.396;10.008;2023-02-22T09:25:48;95960.16;;;10.84;48.19
8253;BME280;61313;48.396;10.008;2023-02-22T09:28:15;95957.00;;;10.94;48.15
8253;BME280;61313;48.396;10.008;2023-02-22T09:30:41;95954.63;;;10.90;48.36
8253;BME280;61313;48.396;10.008;2023-02-22T09:33:12;95946.59;;;10.75;48.93
8253;BME280;61313;48.396;10.008;2023-02-22T09:35:39;95948.34;;;10.92;48.71
8253;BME280;61313;48.396;10.008;2023-02-22T09:38:12;95948.41;;;11.08;48.16
8253;BME280;61313;48.396;10.008;2023-02-22T09:40:42;95946.56;;;11.42;47.76
8253;BME280;61313;48.396;10.008;2023-02-22T09:43:36;95935.50;;;11.53;47.33
8253;BME280;61313;48.396;10.008;2023-02-22T09:49:14;95939.34;;;10.80;49.70
8253;BME280;61313;48.396;10.008;2023-02-22T09:51:57;95940.22;;;11.46;47.94
8253;BME280;61313;48.396;10.008;2023-02-22T09:56:57;95936.84;;;12.07;47.07
8253;BME280;61313;48.396;10.008;2023-02-22T09:59:29;95928.22;;;12.20;46.03
8253;BME280;61313;48.396;10.008;2023-02-22T10:02:20;95931.00;;;12.47;45.36
8253;BME280;61313;48.396;10.008;2023-02-22T10:04:56;95934.03;;;11.63;47.82
8253;BME280;61313;48.396;10.008;2023-02-22T10:07:32;95938.34;;;11.80;48.00
8253;BME280;61313;48.396;10.008;2023-02-22T10:10:01;95931.34;;;12.26;46.69
8253;BME280;61313;48.396;10.008;2023-02-22T10:12:59;95933.03;;;11.65;48.54
8253;BME280;61313;48.396;10.008;2023-02-22T10:21:07;95920.78;;;11.80;48.05
8253;BME280;61313;48.396;10.008;2023-02-22T10:26:41;95910.81;;;11.87;48.90
8253;BME280;61313;48.396;10.008;2023-02-22T10:29:29;95909.09;;;12.32;46.43
8253;BME280;61313;48.396;10.008;2023-02-22T10:31:59;95903.28;;;12.11;45.99
8253;BME280;61313;48.396;10.008;2023-02-22T10:34:30;95909.09;;;12.32;46.26
8253;BME280;61313;48.396;10.008;2023-02-22T10:37:07;95905.88;;;12.27;44.89
8253;BME280;61313;48.396;10.008;2023-02-22T10:39:40;95907.28;;;12.63;45.01
8253;BME280;61313;48.396;10.008;2023-02-22T10:42:07;95900.94;;;12.37;44.55
8253;BME280;61313;48.396;10.008;2023-02-22T10:44:34;95906.50;;;12.46;44.02
8253;BME280;61313;48.396;10.008;2023-02-22T10:47:02;95907.47;;;12.60;44.07
8253;BME280;61313;48.396;10.008;2023-02-22T10:49:34;95901.25;;;12.89;42.82
8253;BME280;61313;48.396;10.008;2023-02-22T10:52:12;95897.50;;;12.79;43.53
8253;BME280;61313;48.396;10.008;2023-02-22T10:54:41;95895.44;;;12.84;42.86
8253;BME280;61313;48.396;10.008;2023-02-22T10:57:10;95894.88;;;12.79;43.06
8253;BME280;61313;48.396;10.008;2023-02-22T10:59:38;95894.88;;;12.79;42.56
8253;BME280;61313;48.396;10.008;2023-02-22T11:02:23;95888.97;;;13.04;42.32
8253;BME280;61313;48.396;10.008;2023-02-22T11:04:53;95894.03;;;13.07;42.24
8253;BME280;61313;48.396;10.008;2023-02-22T11:07:32;95882.72;;;13.20;41.83
8253;BME280;61313;48.396;10.008;2023-02-22T11:10:03;95884.81;;;13.14;42.21
8253;BME280;61313;48.396;10.008;2023-02-22T11:12:34;95878.72;;;13.28;41.94
8253;BME280;61313;48.396;10.008;2023-02-22T11:15:31;95886.81;;;13.11;42.07
8253;BME280;61313;48.396;10.008;2023-02-22T11:17:57;95879.34;;;13.18;41.50
8253;BME280;61313;48.396;10.008;2023-02-22T11:20:32;95871.44;;;13.18;41.92
8253;BME280;61313;48.396;10.008;2023-02-22T11:23:01;95861.84;;;13.17;42.75
8253;BME280;61313;48.396;10.008;2023-02-22T11:25:31;95864.56;;;13.29;42.30
8253;BME280;61313;48.396;10.008;2023-02-22T11:28:10;95856.94;;;13.39;41.68
8253;BME280;61313;48.396;10.008;2023-02-22T11:30:40;95855.44;;;13.21;41.74
8253;BME280;61313;48.396;10.008;2023-02-22T11:33:20;95848.22;;;13.10;42.59
8253;BME280;61313;48.396;10.008;2023-02-22T11:35:58;95845.38;;;13.13;43.13
8253;BME280;61313;48.396;10.008;2023-02-22T11:38:30;95839.94;;;13.30;42.51
8253;BME280;61313;48.396;10.008;2023-02-22T11:43:30;95835.31;;;13.34;43.06
8253;BME280;61313;48.396;10.008;2023-02-22T11:48:26;95831.03;;;13.46;42.89
8253;BME280;61313;48.396;10.008;2023-02-22T11:51:15;95825.78;;;13.73;42.34
8253;BME280;61313;48.396;10.008;2023-02-22T11:56:48;95824.81;;;13.74;42.97
8253;BME280;61313;48.396;10.008;2023-02-22T12:04:55;95822.09;;;13.75;43.18
8253;BME280;61313;48.396;10.008;2023-02-22T12:11:10;95814.94;;;13.90;42.88
8253;BME280;61313;48.396;10.008;2023-02-22T12:13:57;95817.94;;;14.11;42.72
8253;BME280;61313;48.396;10.008;2023-02-22T12:21:33;95803.25;;;13.94;42.19
8253;BME280;61313;48.396;10.008;2023-02-22T12:24:07;95800.75;;;14.06;42.72
8253;BME280;61313;48.396;10.008;2023-02-22T12:26:46;95791.16;;;14.30;42.20
8253;BME280;61313;48.396;10.008;2023-02-22T12:31:56;95790.34;;;14.55;41.33
8253;BME280;61313;48.396;10.008;2023-02-22T12:37:10;95779.19;;;14.50;41.26
8253;BME280;61313;48.396;10.008;2023-02-22T12:42:47;95775.72;;;14.11;42.60
8253;BME280;61313;48.396;10.008;2023-02-22T12:45:42;95778.31;;;13.86;43.21
8253;BME280;61313;48.396;10.008;2023-02-22T12:53:55;95772.91;;;13.74;43.98
8253;BME280;61313;48.396;10.008;2023-02-22T12:56:36;95763.25;;;14.01;43.20
8253;BME280;61313;48.396;10.008;2023-02-22T12:59:31;95759.16;;;13.96;43.73
8253;BME280;61313;48.396;10.008;2023-02-22T13:02:26;95769.06;;;13.93;43.79
8253;BME280;61313;48.396;10.008;2023-02-22T13:04:47;95762.41;;;14.00;44.31
8253;BME280;61313;48.396;10.008;2023-02-22T13:12:55;95754.94;;;14.19;44.76
8253;BME280;61313;48.396;10.008;2023-02-22T13:15:27;95756.72;;;14.19;44.73
8253;BME280;61313;48.396;10.008;2023-02-22T13:20:46;95745.63;;;13.88;45.65
8253;BME280;61313;48.396;10.008;2023-02-22T13:25:53;95743.63;;;13.92;45.45
8253;BME280;61313;48.396;10.008;2023-02-22T13:31:19;95740.44;;;13.74;46.18
8253;BME280;61313;48.396;10.008;2023-02-22T13:36:40;95744.78;;;13.88;45.87
8253;BME280;61313;48.396;10.008;2023-02-22T13:39:19;95743.63;;;13.92;46.29
8253;BME280;61313;48.396;10.008;2023-02-22T13:52:49;95736.25;;;14.10;46.92
8253;BME280;61313;48.396;10.008;2023-02-22T13:55:28;95739.31;;;14.16;45.90
8253;BME280;61313;48.396;10.008;2023-02-22T13:58:08;95731.63;;;14.13;45.81
8253;BME280;61313;48.396;10.008;2023-02-22T14:00:43;95726.56;;;14.10;46.09
8253;BME280;61313;48.396;10.008;2023-02-22T14:18:59;95719.44;;;14.49;45.24
8253;BME280;61313;48.396;10.008;2023-02-22T14:21:25;95717.34;;;14.54;45.44
8253;BME280;61313;48.396;10.008;2023-02-22T14:23:55;95720.19;;;14.64;45.58
8253;BME280;61313;48.396;10.008;2023-02-22T14:26:35;95718.72;;;14.60;45.15
8253;BME280;61313;48.396;10.008;2023-02-22T14:29:14;95720.72;;;14.56;45.85
8253;BME280;61313;48.396;10.008;2023-02-22T14:34:16;95722.72;;;14.53;46.14
8253;BME280;61313;48.396;10.008;2023-02-22T14:36:58;95722.44;;;14.57;46.35
8253;BME280;61313;48.396;10.008;2023-02-22T14:39:47;95725.19;;;14.56;45.98
8253;BME280;61313;48.396;10.008;2023-02-22T14:52:41;95717.16;;;14.32;46.63
8253;BME280;61313;48.396;10.008;2023-02-22T15:02:55;95717.56;;;14.26;47.18
8253;BME280;61313;48.396;10.008;2023-02-22T15:05:24;95724.97;;;14.21;47.50
8253;BME280;61313;48.396;10.008;2023-02-22T15:08:06;95722.63;;;14.16;47.63
8253;BME280;61313;48.396;10.008;2023-02-22T15:13:22;95723.59;;;14.15;47.62
8253;BME280;61313;48.396;10.008;2023-02-22T15:15:57;95728.97;;;14.13;47.38
8253;BME280;61313;48.396;10.008;2023-02-22T15:18:37;95714.94;;;14.00;48.43
8253;BME280;61313;48.396;10.008;2023-02-22T15:21:11;95720.19;;;14.00;48.20
8253;BME280;61313;48.396;10.008;2023-02-22T15:23:46;95721.16;;;13.99;47.90
8253;BME280;61313;48.396;10.008;2023-02-22T15:26:37;95724.22;;;13.93;47.62
8253;BME280;61313;48.396;10.008;2023-02-22T15:29:31;95728.97;;;13.88;48.40
8253;BME280;61313;48.396;10.008;2023-02-22T15:31:59;95720.44;;;13.84;48.11
8253;BME280;61313;48.396;10.008;2023-02-22T15:34:30;95721.03;;;13.88;48.07
8253;BME280;61313;48.396;10.008;2023-02-22T15:37:00;95717.44;;;13.89;48.89
8253;BME280;61313;48.396;10.008;2023-02-22T15:39:33;95720.31;;;13.86;49.10
8253;BME280;61313;48.396;10.008;2023-02-22T15:44:38;95723.06;;;13.84;48.64
8253;BME280;61313;48.396;10.008;2023-02-22T15:47:05;95720.41;;;13.97;49.12